createdAt,value
2022-09-23T00:00:57.613Z,7.69
2022-09-23T00:01:57.651Z,7.75
2022-09-23T00:02:57.491Z,7.60
2022-09-23T00:03:57.445Z,7.69
2022-09-23T00:04:57.390Z,7.72
2022-09-23T00:05:57.351Z,7.72
2022-09-23T00:06:57.320Z,7.74
2022-09-23T00:07:57.314Z,7.75
2022-09-23T00:08:57.298Z,7.74
2022-09-23T00:09:57.278Z,7.72
2022-09-23T00:10:57.241Z,7.66
2022-09-23T00:11:57.266Z,7.74
2022-09-23T00:12:57.210Z,7.79
2022-09-23T00:13:57.181Z,7.75
2022-09-23T00:14:57.126Z,7.77
2022-09-23T00:15:57.125Z,7.72
2022-09-23T00:16:57.164Z,7.75
2022-09-23T00:17:57.056Z,7.71
2022-09-23T00:18:57.070Z,7.74
2022-09-23T00:19:57.026Z,7.69
2022-09-23T00:20:56.984Z,7.74
2022-09-23T00:21:56.972Z,7.71
2022-09-23T00:22:56.937Z,7.69
2022-09-23T00:23:56.907Z,7.69
2022-09-23T00:24:56.895Z,7.82
2022-09-23T00:25:56.883Z,7.71
2022-09-23T00:26:56.840Z,7.71
2022-09-23T00:27:56.846Z,7.77
2022-09-23T00:28:56.804Z,7.71
2022-09-23T00:29:56.813Z,7.58
2022-09-23T00:30:56.843Z,7.60
2022-09-23T00:31:56.719Z,7.58
2022-09-23T00:32:56.734Z,7.75
2022-09-23T00:33:56.699Z,7.58
2022-09-23T00:34:56.643Z,7.71
2022-09-23T00:35:56.653Z,7.74
2022-09-23T00:36:56.622Z,7.66
2022-09-23T00:37:56.590Z,7.66
2022-09-23T00:38:56.583Z,7.67
2022-09-23T00:39:56.533Z,7.60
2022-09-23T00:40:56.502Z,7.72
2022-09-23T00:41:56.508Z,7.69
2022-09-23T00:42:56.466Z,7.81
2022-09-23T00:43:56.449Z,7.75
2022-09-23T00:44:56.423Z,7.85
2022-09-23T00:45:56.421Z,7.89
2022-09-23T00:46:56.388Z,7.90
2022-09-23T00:47:56.337Z,7.90
2022-09-23T00:48:56.333Z,7.89
2022-09-23T00:49:56.301Z,7.89
2022-09-23T00:50:56.264Z,7.84
2022-09-23T00:51:56.236Z,7.90
2022-09-23T00:52:56.256Z,7.93
2022-09-23T00:53:56.204Z,8.02
2022-09-23T00:54:56.170Z,7.94
2022-09-23T00:55:56.151Z,7.87
2022-09-23T00:56:56.203Z,7.92
2022-09-23T00:57:56.120Z,7.87
2022-09-23T00:58:56.116Z,7.72
2022-09-23T00:59:56.066Z,7.71
2022-09-23T01:00:56.145Z,7.77
2022-09-23T01:01:56.047Z,7.74
2022-09-23T01:02:56.010Z,7.69
2022-09-23T01:03:56.040Z,7.74
2022-09-23T01:04:55.965Z,7.77
2022-09-23T01:05:55.907Z,7.60
2022-09-23T01:06:55.907Z,7.66
2022-09-23T01:07:55.879Z,7.62
2022-09-23T01:08:55.838Z,7.49
2022-09-23T01:09:55.800Z,7.47
2022-09-23T01:10:55.831Z,7.40
2022-09-23T01:11:55.788Z,7.40
2022-09-23T01:12:55.789Z,7.42
2022-09-23T01:13:55.707Z,7.37
2022-09-23T01:14:55.708Z,7.40
2022-09-23T01:15:55.720Z,7.42
2022-09-23T01:16:55.713Z,7.38
2022-09-23T01:17:55.599Z,7.37
2022-09-23T01:18:55.603Z,7.38
2022-09-23T01:19:55.565Z,7.35
2022-09-23T01:20:55.534Z,7.44
2022-09-23T01:21:55.513Z,7.45
2022-09-23T01:22:55.478Z,7.44
2022-09-23T01:23:55.455Z,7.40
2022-09-23T01:24:55.432Z,7.42
2022-09-23T01:25:55.403Z,7.34
2022-09-23T01:26:55.412Z,7.29
2022-09-23T01:27:55.359Z,7.32
2022-09-23T01:28:55.368Z,7.31
2022-09-23T01:29:55.318Z,7.41
2022-09-23T01:30:55.338Z,7.37
2022-09-23T01:31:55.287Z,7.41
2022-09-23T01:32:55.303Z,7.41
2022-09-23T01:33:55.216Z,7.37
2022-09-23T01:34:55.193Z,7.40
2022-09-23T01:35:55.168Z,7.55
2022-09-23T01:36:55.188Z,7.40
2022-09-23T01:37:55.187Z,7.37
2022-09-23T01:38:55.105Z,7.50
2022-09-23T01:39:55.084Z,7.50
2022-09-23T01:40:55.078Z,7.44
2022-09-23T01:41:55.137Z,7.40
2022-09-23T01:42:54.995Z,7.44
2022-09-23T01:43:54.967Z,7.41
2022-09-23T01:44:54.952Z,7.37
2022-09-23T01:45:54.959Z,7.38
2022-09-23T01:46:54.906Z,7.34
2022-09-23T01:47:54.934Z,7.35
2022-09-23T01:48:54.884Z,7.55
2022-09-23T01:49:54.851Z,7.59
2022-09-23T01:50:54.810Z,7.59
2022-09-23T01:51:54.812Z,7.55
2022-09-23T01:52:54.748Z,7.55
2022-09-23T01:53:54.749Z,7.52
2022-09-23T01:54:54.759Z,7.45
2022-09-23T01:55:54.723Z,7.41
2022-09-23T01:56:54.661Z,7.45
2022-09-23T01:57:54.636Z,7.50
2022-09-23T01:58:54.612Z,7.58
2022-09-23T01:59:54.591Z,7.74
2022-09-23T02:00:54.642Z,7.69
2022-09-23T02:01:54.528Z,7.74
2022-09-23T02:02:54.546Z,7.81
2022-09-23T02:03:54.552Z,8.03
2022-09-23T02:04:54.516Z,8.00
2022-09-23T02:05:54.438Z,8.04
2022-09-23T02:06:54.408Z,8.12
2022-09-23T02:07:54.403Z,8.21
2022-09-23T02:08:54.364Z,8.25
2022-09-23T02:09:54.343Z,8.35
2022-09-23T02:10:54.305Z,8.39
2022-09-23T02:11:54.294Z,8.45
2022-09-23T02:12:54.276Z,8.42
2022-09-23T02:13:54.251Z,8.57
2022-09-23T02:14:54.220Z,8.65
2022-09-23T02:15:54.190Z,8.62
2022-09-23T02:16:54.442Z,8.53
2022-09-23T02:17:54.149Z,8.57
2022-09-23T02:18:54.122Z,8.51
2022-09-23T02:19:54.122Z,8.42
2022-09-23T02:20:54.072Z,8.33
2022-09-23T02:21:54.048Z,8.10
2022-09-23T02:22:54.086Z,8.14
2022-09-23T02:23:54.014Z,8.12
2022-09-23T02:24:53.985Z,8.10
2022-09-23T02:25:53.975Z,7.99
2022-09-23T02:26:53.951Z,8.02
2022-09-23T02:27:53.919Z,7.99
2022-09-23T02:28:53.923Z,8.03
2022-09-23T02:29:53.900Z,7.99
2022-09-23T02:30:53.844Z,7.94
2022-09-23T02:31:53.877Z,7.94
2022-09-23T02:32:53.851Z,7.96
2022-09-23T02:33:53.763Z,7.92
2022-09-23T02:34:53.732Z,7.82
2022-09-23T02:35:53.740Z,7.81
2022-09-23T02:36:53.694Z,7.81
2022-09-23T02:37:53.692Z,7.87
2022-09-23T02:38:53.650Z,7.85
2022-09-23T02:39:53.626Z,7.87
2022-09-23T02:40:53.639Z,7.89
2022-09-23T02:41:53.595Z,7.87
2022-09-23T02:42:53.538Z,7.92
2022-09-23T02:43:53.527Z,7.92
2022-09-23T02:44:53.533Z,7.85
2022-09-23T02:45:53.557Z,7.92
2022-09-23T02:46:53.452Z,7.92
2022-09-23T02:47:53.440Z,7.92
2022-09-23T02:48:53.437Z,7.87
2022-09-23T02:49:53.394Z,7.87
2022-09-23T02:50:53.352Z,7.82
2022-09-23T02:51:53.330Z,7.93
2022-09-23T02:52:53.296Z,7.96
2022-09-23T02:53:53.297Z,7.85
2022-09-23T02:54:53.265Z,7.82
2022-09-23T02:55:53.258Z,7.72
2022-09-23T02:56:53.207Z,7.71
2022-09-23T02:57:53.201Z,7.71
2022-09-23T02:58:53.159Z,7.59
2022-09-23T02:59:53.174Z,7.69
2022-09-23T03:00:53.163Z,7.59
2022-09-23T03:01:53.152Z,7.62
2022-09-23T03:02:53.075Z,7.66
2022-09-23T03:03:53.034Z,7.52
2022-09-23T03:04:53.017Z,7.53
2022-09-23T03:05:52.994Z,7.55
2022-09-23T03:06:52.965Z,7.60
2022-09-23T03:07:52.948Z,7.53
2022-09-23T03:08:52.905Z,7.45
2022-09-23T03:09:52.898Z,7.55
2022-09-23T03:10:52.868Z,7.52
2022-09-23T03:11:52.885Z,7.52
2022-09-23T03:12:52.916Z,7.56
2022-09-23T03:13:52.811Z,7.67
2022-09-23T03:14:52.788Z,7.67
2022-09-23T03:15:52.734Z,7.67
2022-09-23T03:16:52.799Z,7.71
2022-09-23T03:17:52.715Z,7.78
2022-09-23T03:18:52.685Z,7.72
2022-09-23T03:19:52.644Z,7.81
2022-09-23T03:20:52.650Z,8.03
2022-09-23T03:21:52.602Z,7.89
2022-09-23T03:22:52.644Z,7.87
2022-09-23T03:23:52.558Z,7.89
2022-09-23T03:24:54.132Z,7.90
2022-09-23T03:25:52.517Z,7.89
2022-09-23T03:26:52.477Z,7.96
2022-09-23T03:27:52.462Z,7.92
2022-09-23T03:28:52.419Z,7.84
2022-09-23T03:29:52.403Z,7.82
2022-09-23T03:30:52.405Z,7.82
2022-09-23T03:31:52.447Z,7.72
2022-09-23T03:32:52.415Z,7.92
2022-09-23T03:33:52.305Z,7.84
2022-09-23T03:34:52.301Z,7.96
2022-09-23T03:35:52.253Z,7.81
2022-09-23T03:36:52.268Z,7.77
2022-09-23T03:37:52.212Z,7.77
2022-09-23T03:38:52.188Z,7.74
2022-09-23T03:39:52.149Z,7.84
2022-09-23T03:40:52.230Z,7.87
2022-09-23T03:41:52.147Z,7.92
2022-09-23T03:42:52.088Z,7.92
2022-09-23T03:43:52.069Z,7.90
2022-09-23T03:44:52.045Z,8.02
2022-09-23T03:45:52.059Z,7.97
2022-09-23T03:46:52.002Z,8.00
2022-09-23T03:47:52.063Z,8.00
2022-09-23T03:48:51.950Z,8.07
2022-09-23T03:49:51.935Z,8.08
2022-09-23T03:50:51.900Z,8.12
2022-09-23T03:51:51.864Z,8.11
2022-09-23T03:52:51.872Z,8.35
2022-09-23T03:53:51.823Z,8.47
2022-09-23T03:54:51.826Z,8.58
2022-09-23T03:55:51.779Z,8.86
2022-09-23T03:56:51.735Z,8.78
2022-09-23T03:57:51.740Z,8.87
2022-09-23T03:58:51.718Z,8.87
2022-09-23T03:59:51.695Z,8.86
2022-09-23T04:00:51.691Z,8.93
2022-09-23T04:01:51.661Z,8.96
2022-09-23T04:02:51.594Z,9.06
2022-09-23T04:03:51.578Z,9.09
2022-09-23T04:04:51.566Z,9.15
2022-09-23T04:05:51.536Z,9.20
2022-09-23T04:06:51.499Z,9.15
2022-09-23T04:07:51.479Z,9.20
2022-09-23T04:08:51.475Z,9.20
2022-09-23T04:09:51.424Z,9.20
2022-09-23T04:10:54.748Z,9.12
2022-09-23T04:11:51.389Z,9.15
2022-09-23T04:12:51.355Z,9.15
2022-09-23T04:13:51.375Z,9.06
2022-09-23T04:14:51.307Z,9.12
2022-09-23T04:15:51.317Z,9.13
2022-09-23T04:16:51.319Z,9.01
2022-09-23T04:17:51.252Z,8.94
2022-09-23T04:18:51.252Z,8.99
2022-09-23T04:19:51.194Z,9.01
2022-09-23T04:20:51.180Z,9.06
2022-09-23T04:21:51.218Z,9.05
2022-09-23T04:22:51.117Z,8.99
2022-09-23T04:23:51.091Z,9.09
2022-09-23T04:24:51.089Z,9.15
2022-09-23T04:25:51.044Z,9.20
2022-09-23T04:26:51.038Z,9.34
2022-09-23T04:27:51.016Z,9.32
2022-09-23T04:28:51.019Z,9.42
2022-09-23T04:29:50.945Z,9.50
2022-09-23T04:30:50.964Z,9.50
2022-09-23T04:31:50.958Z,9.46
2022-09-23T04:32:50.899Z,9.49
2022-09-23T04:33:50.866Z,9.49
2022-09-23T04:34:50.829Z,9.61
2022-09-23T04:35:50.808Z,9.49
2022-09-23T04:36:50.778Z,9.48
2022-09-23T04:37:50.774Z,9.49
2022-09-23T04:38:50.841Z,9.46
2022-09-23T04:39:50.731Z,9.50
2022-09-23T04:40:50.747Z,9.66
2022-09-23T04:41:50.673Z,9.73
2022-09-23T04:42:50.644Z,9.73
2022-09-23T04:43:50.709Z,9.76
2022-09-23T04:44:50.596Z,9.76
2022-09-23T04:45:50.565Z,9.76
2022-09-23T04:46:50.618Z,9.70
2022-09-23T04:47:50.541Z,9.73
2022-09-23T04:48:50.487Z,9.76
2022-09-23T04:49:50.496Z,9.76
2022-09-23T04:50:50.453Z,9.79
2022-09-23T04:51:50.419Z,9.76
2022-09-23T04:52:50.412Z,9.75
2022-09-23T04:53:50.371Z,9.79
2022-09-23T04:54:50.362Z,9.83
2022-09-23T04:55:50.328Z,9.88
2022-09-23T04:56:50.322Z,9.89
2022-09-23T04:57:50.325Z,9.85
2022-09-23T04:58:50.250Z,9.86
2022-09-23T04:59:50.240Z,9.82
2022-09-23T05:00:50.224Z,9.83
2022-09-23T05:01:50.260Z,9.97
2022-09-23T05:02:50.167Z,9.94
2022-09-23T05:03:50.136Z,10.01
2022-09-23T05:04:50.140Z,9.96
2022-09-23T05:05:50.090Z,9.97
2022-09-23T05:06:50.156Z,9.89
2022-09-23T05:07:50.087Z,9.85
2022-09-23T05:08:50.027Z,9.78
2022-09-23T05:09:50.011Z,9.73
2022-09-23T05:10:49.966Z,9.82
2022-09-23T05:11:49.975Z,9.79
2022-09-23T05:12:53.573Z,9.68
2022-09-23T05:13:50.053Z,9.57
2022-09-23T05:14:49.900Z,9.49
2022-09-23T05:15:49.888Z,9.48
2022-09-23T05:16:49.823Z,9.40
2022-09-23T05:17:49.819Z,9.31
2022-09-23T05:18:49.807Z,9.24
2022-09-23T05:19:49.752Z,9.16
2022-09-23T05:20:49.728Z,9.10
2022-09-23T05:21:49.735Z,8.99
2022-09-23T05:22:49.721Z,8.93
2022-09-23T05:23:49.661Z,8.90
2022-09-23T05:24:49.646Z,8.76
2022-09-23T05:25:49.604Z,8.73
2022-09-23T05:26:49.633Z,8.66
2022-09-23T05:27:49.569Z,8.79
2022-09-23T05:28:49.590Z,8.88
2022-09-23T05:29:49.518Z,8.75
2022-09-23T05:30:49.558Z,8.87
2022-09-23T05:31:49.578Z,8.93
2022-09-23T05:32:49.460Z,8.94
2022-09-23T05:33:49.422Z,9.04
2022-09-23T05:34:49.418Z,9.09
2022-09-23T05:35:49.371Z,9.05
2022-09-23T05:36:49.341Z,9.20
2022-09-23T05:37:49.320Z,9.18
2022-09-23T05:38:49.309Z,9.24
2022-09-23T05:39:49.273Z,9.35
2022-09-23T05:40:49.321Z,9.35
2022-09-23T05:41:49.256Z,9.39
2022-09-23T05:42:49.202Z,9.35
2022-09-23T05:43:49.192Z,9.32
2022-09-23T05:44:49.169Z,9.32
2022-09-23T05:45:49.124Z,9.31
2022-09-23T05:46:49.176Z,9.32
2022-09-23T05:47:49.083Z,9.32
2022-09-23T05:48:49.076Z,9.35
2022-09-23T05:49:59.646Z,9.40
2022-09-23T05:50:49.021Z,9.31
2022-09-23T05:51:49.013Z,9.32
2022-09-23T05:52:48.987Z,9.35
2022-09-23T05:53:48.949Z,9.21
2022-09-23T05:54:48.947Z,9.27
2022-09-23T05:55:48.891Z,9.38
2022-09-23T05:56:48.913Z,9.38
2022-09-23T05:57:48.869Z,9.48
2022-09-23T05:58:48.825Z,9.48
2022-09-23T05:59:48.810Z,9.52
2022-09-23T06:00:48.799Z,9.48
2022-09-23T06:01:51.057Z,9.56
2022-09-23T06:02:48.876Z,9.67
2022-09-23T06:03:48.763Z,9.63
2022-09-23T06:04:48.762Z,9.79
2022-09-23T06:05:48.707Z,9.73
2022-09-23T06:06:48.699Z,9.81
2022-09-23T06:07:48.648Z,9.83
2022-09-23T06:08:48.670Z,9.85
2022-09-23T06:09:48.593Z,9.96
2022-09-23T06:10:53.609Z,9.99
2022-09-23T06:11:48.540Z,10.12
2022-09-23T06:12:48.517Z,10.10
2022-09-23T06:13:48.536Z,10.17
2022-09-23T06:14:48.524Z,10.17
2022-09-23T06:15:48.543Z,10.26
2022-09-23T06:16:48.424Z,10.28
2022-09-23T06:17:48.380Z,10.39
2022-09-23T06:18:48.392Z,10.47
2022-09-23T06:19:48.407Z,10.51
2022-09-23T06:20:48.306Z,10.46
2022-09-23T06:21:48.296Z,10.53
2022-09-23T06:22:51.931Z,10.55
2022-09-23T06:23:48.383Z,10.68
2022-09-23T06:24:48.247Z,10.70
2022-09-23T06:25:48.244Z,10.83
2022-09-23T06:26:48.244Z,10.83
2022-09-23T06:27:48.186Z,10.98
2022-09-23T06:28:48.158Z,10.98
2022-09-23T06:29:48.120Z,11.06
2022-09-23T06:30:48.104Z,11.09
2022-09-23T06:31:48.135Z,11.16
2022-09-23T06:32:48.086Z,11.24
2022-09-23T06:33:48.071Z,11.31
2022-09-23T06:34:51.895Z,11.32
2022-09-23T06:35:58.011Z,11.32
2022-09-23T06:36:48.042Z,11.34
2022-09-23T06:37:47.965Z,11.32
2022-09-23T06:38:47.929Z,11.47
2022-09-23T06:39:47.917Z,11.46
2022-09-23T06:40:47.931Z,11.50
2022-09-23T06:41:47.889Z,11.49
2022-09-23T06:42:52.085Z,11.49
2022-09-23T06:43:47.799Z,11.62
2022-09-23T06:44:47.853Z,11.56
2022-09-23T06:45:47.822Z,11.56
2022-09-23T06:46:47.840Z,11.70
2022-09-23T06:47:47.709Z,11.62
2022-09-23T06:48:47.724Z,11.64
2022-09-23T06:49:47.672Z,11.78
2022-09-23T06:50:47.649Z,11.78
2022-09-23T06:51:47.657Z,11.72
2022-09-23T06:52:47.595Z,11.71
2022-09-23T06:53:47.594Z,11.78
2022-09-23T06:54:47.547Z,11.83
2022-09-23T06:55:47.533Z,11.77
2022-09-23T06:56:47.514Z,11.82
2022-09-23T06:57:47.510Z,11.65
2022-09-23T06:58:47.463Z,11.65
2022-09-23T06:59:47.459Z,11.70
2022-09-23T07:00:47.417Z,11.75
2022-09-23T07:01:47.557Z,11.86
2022-09-23T07:02:47.570Z,11.86
2022-09-23T07:03:47.388Z,11.78
2022-09-23T07:04:47.347Z,11.78
2022-09-23T07:05:47.304Z,11.75
2022-09-23T07:06:47.289Z,11.77
2022-09-23T07:07:47.271Z,11.70
2022-09-23T07:08:47.307Z,11.78
2022-09-23T07:09:47.228Z,11.85
2022-09-23T07:10:47.191Z,11.90
2022-09-23T07:11:47.234Z,11.96
2022-09-23T07:12:47.197Z,11.87
2022-09-23T07:13:47.161Z,11.99
2022-09-23T07:14:47.122Z,11.99
2022-09-23T07:15:47.160Z,12.02
2022-09-23T07:16:47.081Z,12.11
2022-09-23T07:17:47.057Z,12.21
2022-09-23T07:18:47.073Z,12.23
2022-09-23T07:19:47.024Z,12.27
2022-09-23T07:20:47.007Z,12.42
2022-09-23T07:21:46.998Z,12.51
2022-09-23T07:22:46.954Z,12.57
2022-09-23T07:23:46.969Z,12.77
2022-09-23T07:24:47.052Z,12.85
2022-09-23T07:25:46.875Z,12.85
2022-09-23T07:26:46.884Z,12.92
2022-09-23T07:27:46.910Z,12.93
2022-09-23T07:28:46.811Z,13.03
2022-09-23T07:29:48.904Z,13.22
2022-09-23T07:30:58.633Z,13.12
2022-09-23T07:31:46.803Z,13.30
2022-09-23T07:32:49.155Z,13.41
2022-09-23T07:33:46.701Z,13.43
2022-09-23T07:34:46.686Z,13.52
2022-09-23T07:35:46.782Z,13.79
2022-09-23T07:36:46.706Z,14.13
2022-09-23T07:37:46.622Z,14.39
2022-09-23T07:38:46.646Z,14.72
2022-09-23T07:39:46.604Z,15.11
2022-09-23T07:40:46.605Z,15.46
2022-09-23T07:41:46.546Z,15.74
2022-09-23T07:42:46.582Z,15.88
2022-09-23T07:43:46.514Z,16.20
2022-09-23T07:44:46.484Z,16.52
2022-09-23T07:45:46.489Z,16.83
2022-09-23T07:46:46.493Z,16.99
2022-09-23T07:47:46.408Z,17.15
2022-09-23T07:48:46.408Z,17.51
2022-09-23T07:49:46.377Z,17.53
2022-09-23T07:50:46.466Z,17.47
2022-09-23T07:51:46.354Z,17.76
2022-09-23T07:52:46.418Z,18.00
2022-09-23T07:53:46.298Z,18.31
2022-09-23T07:54:46.309Z,18.42
2022-09-23T07:55:46.306Z,18.58
2022-09-23T07:56:46.270Z,18.70
2022-09-23T07:57:46.234Z,18.46
2022-09-23T07:58:46.228Z,18.57
2022-09-23T07:59:46.201Z,18.92
2022-09-23T08:00:46.235Z,19.13
2022-09-23T08:01:46.205Z,19.42
2022-09-23T08:02:49.594Z,19.69
2022-09-23T08:03:46.127Z,19.98
2022-09-23T08:04:46.108Z,20.25
2022-09-23T08:05:46.093Z,20.27
2022-09-23T08:06:46.040Z,20.30
2022-09-23T08:07:46.068Z,20.15
2022-09-23T08:08:49.964Z,20.49
2022-09-23T08:09:46.030Z,20.69
2022-09-23T08:10:46.004Z,21.06
2022-09-23T08:11:45.968Z,20.99
2022-09-23T08:12:45.946Z,20.96
2022-09-23T08:13:45.947Z,21.06
2022-09-23T08:14:45.901Z,20.83
2022-09-23T08:15:45.943Z,20.65
2022-09-23T08:16:45.914Z,20.41
2022-09-23T08:17:45.870Z,20.06
2022-09-23T08:18:45.842Z,19.84
2022-09-23T08:19:45.868Z,20.13
2022-09-23T08:20:47.447Z,20.20
2022-09-23T08:21:45.788Z,20.02
2022-09-23T08:22:45.837Z,20.09
2022-09-23T08:23:45.754Z,20.43
2022-09-23T08:24:45.804Z,20.03
2022-09-23T08:25:46.953Z,19.78
2022-09-23T08:26:45.711Z,19.93
2022-09-23T08:27:45.719Z,20.24
2022-09-23T08:28:45.680Z,20.50
2022-09-23T08:29:45.678Z,20.62
2022-09-23T08:30:45.691Z,20.91
2022-09-23T08:31:45.622Z,21.21
2022-09-23T08:32:45.600Z,21.41
2022-09-23T08:33:45.605Z,21.17
2022-09-23T08:34:45.570Z,20.91
2022-09-23T08:35:45.555Z,20.90
2022-09-23T08:36:45.579Z,20.95
2022-09-23T08:37:45.553Z,20.91
2022-09-23T08:38:45.551Z,20.83
2022-09-23T08:39:45.515Z,20.74
2022-09-23T08:40:45.542Z,20.69
2022-09-23T08:41:45.508Z,20.72
2022-09-23T08:42:45.486Z,20.72
2022-09-23T08:43:45.457Z,20.39
2022-09-23T08:44:45.462Z,20.56
2022-09-23T08:45:45.456Z,20.20
2022-09-23T08:46:45.461Z,19.84
2022-09-23T08:47:45.425Z,19.72
2022-09-23T08:48:45.377Z,19.60
2022-09-23T08:49:45.360Z,19.69
2022-09-23T08:50:45.326Z,19.93
2022-09-23T08:51:45.315Z,19.51
2022-09-23T08:52:45.296Z,19.31
2022-09-23T08:53:45.305Z,19.43
2022-09-23T08:54:45.277Z,19.90
2022-09-23T08:55:45.245Z,20.31
2022-09-23T08:56:45.236Z,20.91
2022-09-23T08:57:57.428Z,21.29
2022-09-23T08:58:45.193Z,21.38
2022-09-23T08:59:45.190Z,21.91
2022-09-23T09:00:45.161Z,21.82
2022-09-23T09:01:45.242Z,22.01
2022-09-23T09:02:45.162Z,21.61
2022-09-23T09:03:45.132Z,21.36
2022-09-23T09:04:45.127Z,21.67
2022-09-23T09:05:53.743Z,21.85
2022-09-23T09:06:52.904Z,22.04
2022-09-23T09:07:45.074Z,21.74
2022-09-23T09:08:45.048Z,21.98
2022-09-23T09:09:45.035Z,22.20
2022-09-23T09:10:45.021Z,22.22
2022-09-23T09:11:48.454Z,22.59
2022-09-23T09:12:45.024Z,21.78
2022-09-23T09:13:45.031Z,20.59
2022-09-23T09:14:44.984Z,20.23
2022-09-23T09:15:45.029Z,20.33
2022-09-23T09:16:59.007Z,20.51
2022-09-23T09:17:44.937Z,20.58
2022-09-23T09:18:44.932Z,21.04
2022-09-23T09:19:44.878Z,20.87
2022-09-23T09:20:44.922Z,21.24
2022-09-23T09:21:44.858Z,20.84
2022-09-23T09:22:44.882Z,20.54
2022-09-23T09:23:44.819Z,20.42
2022-09-23T09:24:44.801Z,20.49
2022-09-23T09:25:44.791Z,20.86
2022-09-23T09:26:44.785Z,21.09
2022-09-23T09:27:44.775Z,21.27
2022-09-23T09:28:44.763Z,21.23
2022-09-23T09:29:44.730Z,21.39
2022-09-23T09:30:48.397Z,21.94
2022-09-23T09:31:44.694Z,21.48
2022-09-23T09:32:44.679Z,21.23
2022-09-23T09:33:44.709Z,21.14
2022-09-23T09:34:44.667Z,21.27
2022-09-23T09:35:44.641Z,21.60
2022-09-23T09:36:44.656Z,21.99
2022-09-23T09:37:44.648Z,22.25
2022-09-23T09:38:44.600Z,22.06
2022-09-23T09:39:44.582Z,21.41
2022-09-23T09:40:44.673Z,21.02
2022-09-23T09:41:44.560Z,20.69
2022-09-23T09:42:44.545Z,20.84
2022-09-23T09:43:44.542Z,21.35
2022-09-23T09:44:44.535Z,21.75
2022-09-23T09:45:44.493Z,22.02
2022-09-23T09:46:44.547Z,22.02
2022-09-23T09:47:44.468Z,21.97
2022-09-23T09:48:44.454Z,22.39
2022-09-23T09:49:44.455Z,22.78
2022-09-23T09:50:44.464Z,23.01
2022-09-23T09:51:44.409Z,22.86
2022-09-23T09:52:44.345Z,22.53
2022-09-23T09:53:44.403Z,22.34
2022-09-23T09:54:44.342Z,22.27
2022-09-23T09:55:44.316Z,22.27
2022-09-23T09:56:44.319Z,22.44
2022-09-23T09:57:44.296Z,22.22
2022-09-23T09:58:44.262Z,21.67
2022-09-23T09:59:44.304Z,21.21
2022-09-23T10:00:44.264Z,21.39
2022-09-23T10:01:44.295Z,21.66
2022-09-23T10:02:44.211Z,21.92
2022-09-23T10:03:44.186Z,22.17
2022-09-23T10:04:44.228Z,22.37
2022-09-23T10:05:44.219Z,22.39
2022-09-23T10:06:44.209Z,22.20
2022-09-23T10:07:44.251Z,22.07
2022-09-23T10:08:44.111Z,22.44
2022-09-23T10:09:44.104Z,22.78
2022-09-23T10:10:44.134Z,22.80
2022-09-23T10:11:44.084Z,22.78
2022-09-23T10:12:44.064Z,22.78
2022-09-23T10:13:44.104Z,23.12
2022-09-23T10:14:44.078Z,23.46
2022-09-23T10:15:45.236Z,23.38
2022-09-23T10:16:44.136Z,23.35
2022-09-23T10:17:44.000Z,23.34
2022-09-23T10:18:44.010Z,23.58
2022-09-23T10:19:43.975Z,23.61
2022-09-23T10:20:44.230Z,23.61
2022-09-23T10:21:43.965Z,23.92
2022-09-23T10:22:43.978Z,23.38
2022-09-23T10:23:43.943Z,22.82
2022-09-23T10:24:43.941Z,22.14
2022-09-23T10:25:43.923Z,22.01
2022-09-23T10:26:43.911Z,22.02
2022-09-23T10:27:43.889Z,22.13
2022-09-23T10:28:43.883Z,22.12
2022-09-23T10:29:43.877Z,22.37
2022-09-23T10:30:43.930Z,22.46
2022-09-23T10:31:43.851Z,22.60
2022-09-23T10:32:43.910Z,22.62
2022-09-23T10:33:43.847Z,22.94
2022-09-23T10:34:43.812Z,23.27
2022-09-23T10:35:43.809Z,23.70
2022-09-23T10:36:44.613Z,23.47
2022-09-23T10:37:43.790Z,23.38
2022-09-23T10:38:43.816Z,23.67
2022-09-23T10:39:43.772Z,23.80
2022-09-23T10:40:43.852Z,23.52
2022-09-23T10:41:43.738Z,23.32
2022-09-23T10:42:43.729Z,23.39
2022-09-23T10:43:43.744Z,23.80
2022-09-23T10:44:43.760Z,23.67
2022-09-23T10:45:43.879Z,23.85
2022-09-23T10:46:43.779Z,23.75
2022-09-23T10:47:43.695Z,23.35
2022-09-23T10:48:43.742Z,23.76
2022-09-23T10:49:43.688Z,23.67
2022-09-23T10:50:43.641Z,23.72
2022-09-23T10:51:43.691Z,23.35
2022-09-23T10:52:43.630Z,22.90
2022-09-23T10:53:43.654Z,22.62
2022-09-23T10:54:43.623Z,22.71
2022-09-23T10:55:43.612Z,23.01
2022-09-23T10:56:43.596Z,23.32
2022-09-23T10:57:43.634Z,23.31
2022-09-23T10:58:43.638Z,23.65
2022-09-23T10:59:43.616Z,23.49
2022-09-23T11:00:43.575Z,23.77
2022-09-23T11:01:43.631Z,23.97
2022-09-23T11:02:43.539Z,23.97
2022-09-23T11:03:43.536Z,24.16
2022-09-23T11:04:43.565Z,24.59
2022-09-23T11:05:43.534Z,24.85
2022-09-23T11:06:43.521Z,24.88
2022-09-23T11:07:43.508Z,24.88
2022-09-23T11:08:43.521Z,24.94
2022-09-23T11:09:43.514Z,25.10
2022-09-23T11:10:46.915Z,24.98
2022-09-23T11:11:43.504Z,24.34
2022-09-23T11:12:43.463Z,24.24
2022-09-23T11:13:43.464Z,23.95
2022-09-23T11:14:43.470Z,23.39
2022-09-23T11:15:43.463Z,22.74
2022-09-23T11:16:43.514Z,22.32
2022-09-23T11:17:43.432Z,22.23
2022-09-23T11:18:43.420Z,22.12
2022-09-23T11:19:45.592Z,22.04
2022-09-23T11:20:43.446Z,22.01
2022-09-23T11:21:43.394Z,22.17
2022-09-23T11:22:43.422Z,22.68
2022-09-23T11:23:43.417Z,23.02
2022-09-23T11:24:43.398Z,23.32
2022-09-23T11:25:43.354Z,23.60
2022-09-23T11:26:43.380Z,24.07
2022-09-23T11:27:43.370Z,24.31
2022-09-23T11:28:43.359Z,24.29
2022-09-23T11:29:43.338Z,24.16
2022-09-23T11:30:43.379Z,23.82
2022-09-23T11:31:43.365Z,23.62
2022-09-23T11:32:43.307Z,23.77
2022-09-23T11:33:43.299Z,24.00
2022-09-23T11:34:43.307Z,24.04
2022-09-23T11:35:43.292Z,24.24
2022-09-23T11:36:43.295Z,23.94
2022-09-23T11:37:43.302Z,23.64
2022-09-23T11:38:43.259Z,23.43
2022-09-23T11:39:43.279Z,23.75
2022-09-23T11:40:45.542Z,23.85
2022-09-23T11:41:43.279Z,23.80
2022-09-23T11:42:43.248Z,23.87
2022-09-23T11:43:43.251Z,23.94
2022-09-23T11:44:43.220Z,24.24
2022-09-23T11:45:43.275Z,24.13
2022-09-23T11:46:43.240Z,24.34
2022-09-23T11:47:43.204Z,24.22
2022-09-23T11:48:43.214Z,24.08
2022-09-23T11:49:43.208Z,23.89
2022-09-23T11:50:43.186Z,23.79
2022-09-23T11:51:43.170Z,23.83
2022-09-23T11:52:43.178Z,23.60
2022-09-23T11:53:43.174Z,23.53
2022-09-23T11:54:43.156Z,23.61
2022-09-23T11:55:55.501Z,23.80
2022-09-23T11:56:46.654Z,23.87
2022-09-23T11:57:49.002Z,23.70
2022-09-23T11:58:46.480Z,23.68
2022-09-23T11:59:43.165Z,23.40
2022-09-23T12:00:47.110Z,23.71
2022-09-23T12:01:45.546Z,23.97
2022-09-23T12:02:44.119Z,24.17
2022-09-23T12:03:44.652Z,24.44
2022-09-23T12:04:53.600Z,24.44
2022-09-23T12:05:43.246Z,24.19
2022-09-23T12:06:43.090Z,24.26
2022-09-23T12:07:43.070Z,24.27
2022-09-23T12:08:43.081Z,24.00
2022-09-23T12:09:57.598Z,23.94
2022-09-23T12:10:43.060Z,23.82
2022-09-23T12:11:43.068Z,23.83
2022-09-23T12:12:43.050Z,23.39
2022-09-23T12:13:43.030Z,23.52
2022-09-23T12:14:43.039Z,23.39
2022-09-23T12:15:43.036Z,23.50
2022-09-23T12:16:43.035Z,23.39
2022-09-23T12:17:43.005Z,23.42
2022-09-23T12:18:43.000Z,23.11
2022-09-23T12:19:42.994Z,23.22
2022-09-23T12:20:42.982Z,22.93
2022-09-23T12:21:51.421Z,23.09
2022-09-23T12:22:42.985Z,23.15
2022-09-23T12:23:42.962Z,23.01
2022-09-23T12:24:42.962Z,22.49
2022-09-23T12:25:42.990Z,22.50
2022-09-23T12:26:42.940Z,22.47
2022-09-23T12:27:42.972Z,22.49
2022-09-23T12:28:42.921Z,22.75
2022-09-23T12:29:42.976Z,22.68
2022-09-23T12:30:43.050Z,22.78
2022-09-23T12:31:45.351Z,22.87
2022-09-23T12:32:42.895Z,23.02
2022-09-23T12:33:42.883Z,23.01
2022-09-23T12:34:42.880Z,23.04
2022-09-23T12:35:42.880Z,23.07
2022-09-23T12:36:42.874Z,23.19
2022-09-23T12:37:42.871Z,23.09
2022-09-23T12:38:42.894Z,23.04
2022-09-23T12:39:42.832Z,22.83
2022-09-23T12:40:42.962Z,22.71
2022-09-23T12:41:42.835Z,22.60
2022-09-23T12:42:42.859Z,22.64
2022-09-23T12:43:42.811Z,22.57
2022-09-23T12:44:42.797Z,22.59
2022-09-23T12:45:42.815Z,22.31
2022-09-23T12:46:42.791Z,22.20
2022-09-23T12:47:42.768Z,22.13
2022-09-23T12:48:42.768Z,22.14
2022-09-23T12:49:42.778Z,22.09
2022-09-23T12:50:42.740Z,22.01
2022-09-23T12:51:42.764Z,21.98
2022-09-23T12:52:42.734Z,22.14
2022-09-23T12:53:42.733Z,22.34
2022-09-23T12:54:42.734Z,22.47
2022-09-23T12:55:42.716Z,22.47
2022-09-23T12:56:42.691Z,22.50
2022-09-23T12:57:42.684Z,22.62
2022-09-23T12:58:42.687Z,22.72
2022-09-23T12:59:42.715Z,22.78
2022-09-23T13:00:42.653Z,22.68
2022-09-23T13:01:42.813Z,22.60
2022-09-23T13:02:42.637Z,22.43
2022-09-23T13:03:42.640Z,22.20
2022-09-23T13:04:42.632Z,22.10